Skip Navigation LinksHome page > Weather > Current weather Skip Navigation Links

Current Weather

Bom Jesus Da Lapa, Brazil

For information only: do not use for flight planning or navigation.
Latest weather
Observation time Friday, July 31, 2015 11:00 AM BRT
Local time Friday, July 31, 2015 12:19 PM BRT
Flight conditions Visual Meteorological Conditions
Winds
Wind direction East (90°)
Wind speed 6 mph
Visibility 6.2 mi.
Sky condition
Ceiling unlimited
Sky clear
Temperature 86°F
Dewpoint 48°F
Altimeter 30.15 in.Hg
Derived measurements
Relative humidity 27%
Heat index 86°F
Density altitude 3070 ft.
Remarks
Ceiling and visibility OK.
METAR SBLP 311400Z 09005KT CAVOK 30/09 Q1021

Settings

Location code

InnerDrive.Weather 4.0.5567.0 Release CLR 4.0.30319.34014
Copyright ©2015 Inner Drive Technology. All rights reserved. Portions Copyright ©1986-2015 David Braverman.

Find weather

Site navigation


Skip Navigation Links

Place info

Page info

PayPal - The safer, easier way to pay online!

Return home.

Copyright ©2015 Inner Drive Technology. Purveyors of fine, hand-crafted computer software. Page printed 2015-07-31T15:19:43 UTC.